Chelatchie, Washington
Current Conditions -  °F | °C
As of 5:53 AM on Friday 28 Nov 2014 (Local Time) from KVUO Reporting Station
Overcast Overcast  
Wind Chill: 53°   Ceiling: 1200
Heat Index: 53°   Visibility: 10mi
Dew Point: 50°   Wind: 3mph
Humidity: 89%   Direction: 110°ESE
Pressure: 29.67"   Gusts: NA
Location:  45.956°N, 122.371°W
Report Text: KVUO 281353Z AUTO 11003KT 10SM OVC012 12/10 A2967 RMK AO2 RAE42 SLP047 P0003 T01170100
Loading
Personal Weather Stations






























Interactive Weather Map New forecast layout! Learn more

10-Day Weather Forecast

Advertisements
Track Severe Weather on mobile